createdAt,value
2022-09-27T00:01:17.774Z,13.90
2022-09-27T00:03:44.712Z,14.10
2022-09-27T00:06:13.507Z,13.90
2022-09-27T00:08:40.343Z,13.90
2022-09-27T00:11:09.506Z,14.00
2022-09-27T00:13:36.377Z,14.00
2022-09-27T00:16:07.542Z,14.00
2022-09-27T00:18:35.090Z,14.10
2022-09-27T00:21:06.068Z,14.00
2022-09-27T00:23:33.476Z,14.00
2022-09-27T00:26:01.041Z,14.10
2022-09-27T00:28:28.090Z,14.00
2022-09-27T00:30:55.293Z,13.70
2022-09-27T00:33:23.644Z,13.70
2022-09-27T00:35:50.548Z,13.70
2022-09-27T00:38:17.511Z,13.80
2022-09-27T00:40:44.759Z,13.90
2022-09-27T00:43:18.173Z,13.80
2022-09-27T00:45:47.994Z,13.90
2022-09-27T00:48:16.933Z,13.80
2022-09-27T00:50:48.297Z,14.00
2022-09-27T00:53:16.745Z,14.00
2022-09-27T00:55:44.749Z,14.00
2022-09-27T00:58:12.591Z,14.00
2022-09-27T01:00:42.451Z,14.00
2022-09-27T01:03:09.767Z,14.20
2022-09-27T01:05:36.715Z,13.90
2022-09-27T01:08:05.471Z,14.00
2022-09-27T01:10:37.221Z,13.90
2022-09-27T01:13:07.343Z,13.90
2022-09-27T01:15:38.179Z,14.00
2022-09-27T01:18:10.801Z,13.90
2022-09-27T01:21:08.704Z,14.00
2022-09-27T01:23:48.727Z,14.00
2022-09-27T01:26:23.005Z,14.00
2022-09-27T01:28:54.595Z,13.80
2022-09-27T01:31:24.489Z,13.80
2022-09-27T01:33:56.018Z,14.00
2022-09-27T01:36:27.229Z,13.90
2022-09-27T01:39:02.762Z,13.90
2022-09-27T01:41:45.386Z,13.80
2022-09-27T01:44:30.227Z,13.90
2022-09-27T01:47:11.788Z,13.90
2022-09-27T01:49:49.453Z,13.70
2022-09-27T01:52:19.052Z,13.70
2022-09-27T01:54:50.745Z,13.90
2022-09-27T01:57:38.988Z,14.00
2022-09-27T02:00:12.033Z,13.90
2022-09-27T02:02:45.559Z,13.90
2022-09-27T02:05:32.192Z,13.60
2022-09-27T02:08:08.529Z,13.70
2022-09-27T02:10:38.053Z,13.50
2022-09-27T02:13:15.803Z,13.70
2022-09-27T02:15:48.293Z,13.70
2022-09-27T02:18:29.036Z,13.80
2022-09-27T02:20:58.395Z,13.90
2022-09-27T02:23:28.423Z,13.90
2022-09-27T02:26:07.702Z,13.90
2022-09-27T02:28:38.274Z,13.90
2022-09-27T02:31:06.753Z,14.10
2022-09-27T02:33:39.872Z,13.80
2022-09-27T02:36:06.977Z,13.70
2022-09-27T02:38:33.857Z,13.60
2022-09-27T02:41:02.385Z,13.90
2022-09-27T02:43:30.142Z,13.90
2022-09-27T02:46:04.686Z,13.80
2022-09-27T02:48:38.834Z,13.80
2022-09-27T02:51:13.066Z,13.70
2022-09-27T02:53:49.419Z,13.60
2022-09-27T02:56:43.677Z,13.50
2022-09-27T02:59:53.862Z,13.70
2022-09-27T03:02:31.394Z,13.80
2022-09-27T03:05:22.314Z,13.60
2022-09-27T03:07:50.961Z,13.60
2022-09-27T03:10:18.737Z,13.40
2022-09-27T03:12:46.185Z,13.30
2022-09-27T03:15:13.868Z,13.20
2022-09-27T03:18:00.818Z,13.30
2022-09-27T03:21:06.295Z,13.20
2022-09-27T03:23:34.574Z,13.20
2022-09-27T03:26:01.547Z,12.90
2022-09-27T03:28:29.831Z,12.90
2022-09-27T03:30:57.301Z,13.00
2022-09-27T03:33:44.292Z,13.00
2022-09-27T03:36:12.027Z,13.00
2022-09-27T03:38:40.436Z,13.10
2022-09-27T03:41:10.785Z,13.10
2022-09-27T03:43:37.649Z,13.10
2022-09-27T03:46:04.903Z,12.70
2022-09-27T03:48:31.835Z,12.70
2022-09-27T03:50:58.689Z,12.60
2022-09-27T03:53:25.734Z,12.60
2022-09-27T03:55:54.032Z,12.40
2022-09-27T03:58:20.921Z,12.60
2022-09-27T04:00:47.864Z,12.50
2022-09-27T04:03:14.840Z,12.60
2022-09-27T04:06:01.885Z,12.70
2022-09-27T04:08:37.006Z,13.10
2022-09-27T04:11:07.618Z,12.90
2022-09-27T04:13:35.253Z,12.90
2022-09-27T04:16:02.947Z,12.80
2022-09-27T04:18:48.655Z,13.10
2022-09-27T04:21:34.275Z,13.30
2022-09-27T04:24:01.595Z,13.20
2022-09-27T04:26:30.118Z,13.30
2022-09-27T04:29:09.851Z,13.40
2022-09-27T04:31:40.520Z,13.10
2022-09-27T04:34:16.158Z,13.00
2022-09-27T04:36:43.063Z,13.10
2022-09-27T04:39:16.102Z,13.00
2022-09-27T04:41:45.899Z,12.90
2022-09-27T04:44:13.299Z,13.00
2022-09-27T04:46:43.720Z,13.00
2022-09-27T04:49:12.193Z,13.00
2022-09-27T04:51:39.642Z,13.00
2022-09-27T04:54:06.552Z,12.90
2022-09-27T04:56:37.121Z,13.00
2022-09-27T04:59:10.062Z,12.80
2022-09-27T05:01:37.966Z,12.60
2022-09-27T05:04:25.209Z,12.40
2022-09-27T05:06:57.185Z,12.50
2022-09-27T05:09:32.322Z,12.40
2022-09-27T05:12:00.275Z,12.40
2022-09-27T05:14:34.751Z,12.30
2022-09-27T05:17:23.471Z,12.10
2022-09-27T05:20:10.600Z,12.10
2022-09-27T05:22:55.829Z,12.40
2022-09-27T05:25:22.857Z,12.50
2022-09-27T05:27:50.159Z,12.30
2022-09-27T05:30:19.078Z,12.30
2022-09-27T05:32:52.983Z,12.20
2022-09-27T05:35:26.163Z,12.00
2022-09-27T05:37:53.649Z,12.10
2022-09-27T05:40:40.235Z,12.10
2022-09-27T05:43:08.193Z,12.10
2022-09-27T05:45:36.686Z,12.20
2022-09-27T05:48:05.394Z,12.40
2022-09-27T05:50:37.387Z,12.40
2022-09-27T05:53:06.127Z,12.40
2022-09-27T05:55:33.318Z,12.50
2022-09-27T05:58:01.716Z,12.70
2022-09-27T06:00:45.267Z,12.80
2022-09-27T06:03:51.383Z,13.00
2022-09-27T06:06:40.288Z,13.20
2022-09-27T06:09:10.038Z,13.20
2022-09-27T06:11:37.599Z,13.10
2022-09-27T06:14:05.809Z,13.10
2022-09-27T06:16:40.605Z,13.30
2022-09-27T06:19:07.629Z,13.30
2022-09-27T06:21:34.548Z,13.30
2022-09-27T06:24:01.682Z,13.20
2022-09-27T06:26:34.988Z,13.30
2022-09-27T06:29:15.184Z,13.40
2022-09-27T06:31:49.949Z,13.40
2022-09-27T06:34:33.580Z,13.80
2022-09-27T06:37:01.559Z,14.90
2022-09-27T06:39:29.565Z,16.00
2022-09-27T06:42:04.191Z,17.10
2022-09-27T06:45:07.140Z,17.80
2022-09-27T06:47:54.442Z,18.20
2022-09-27T06:50:30.806Z,17.80
2022-09-27T06:52:57.682Z,17.00
2022-09-27T06:55:25.627Z,16.10
2022-09-27T06:58:12.323Z,15.50
2022-09-27T07:00:47.907Z,14.90
2022-09-27T07:03:43.261Z,14.50
2022-09-27T07:06:24.093Z,14.40
2022-09-27T07:09:00.123Z,14.30
2022-09-27T07:11:28.602Z,14.20
2022-09-27T07:13:56.474Z,14.10
2022-09-27T07:16:24.015Z,14.20
2022-09-27T07:18:52.751Z,14.10
2022-09-27T07:21:19.788Z,14.20
2022-09-27T07:23:47.232Z,14.20
2022-09-27T07:26:15.337Z,14.30
2022-09-27T07:28:42.772Z,14.30
2022-09-27T07:31:13.734Z,14.40
2022-09-27T07:33:43.243Z,14.50
2022-09-27T07:36:13.341Z,14.50
2022-09-27T07:38:42.915Z,14.50
2022-09-27T07:41:12.345Z,14.50
2022-09-27T07:43:39.277Z,14.60
2022-09-27T07:46:06.550Z,14.70
2022-09-27T07:48:38.215Z,14.70
2022-09-27T07:51:14.226Z,14.90
2022-09-27T07:53:44.382Z,15.00
2022-09-27T07:56:34.278Z,15.10
2022-09-27T07:59:01.667Z,14.90
2022-09-27T08:01:29.834Z,15.00
2022-09-27T08:03:58.586Z,15.20
2022-09-27T08:06:27.741Z,15.30
2022-09-27T08:08:56.174Z,15.20
2022-09-27T08:11:23.250Z,14.80
2022-09-27T08:13:52.636Z,14.90
2022-09-27T08:16:23.589Z,14.80
2022-09-27T08:19:09.209Z,14.80
2022-09-27T08:21:43.821Z,14.50
2022-09-27T08:24:22.000Z,14.30
2022-09-27T08:27:03.882Z,14.50
2022-09-27T08:29:47.825Z,14.70
2022-09-27T08:32:22.125Z,14.60
2022-09-27T08:34:50.465Z,14.70
2022-09-27T08:37:19.054Z,14.70
2022-09-27T08:39:48.051Z,14.50
2022-09-27T08:42:28.049Z,14.50
2022-09-27T08:45:03.613Z,14.40
2022-09-27T08:47:35.755Z,14.40
2022-09-27T08:50:09.424Z,14.60
2022-09-27T08:52:43.549Z,14.30
2022-09-27T08:55:18.876Z,14.30
2022-09-27T08:57:49.494Z,14.40
2022-09-27T09:00:16.794Z,14.50
2022-09-27T09:02:44.233Z,14.50
2022-09-27T09:05:15.031Z,14.80
2022-09-27T09:07:47.956Z,14.90
2022-09-27T09:10:43.252Z,15.10
2022-09-27T09:15:29.222Z,15.10
2022-09-27T09:18:22.772Z,14.70
2022-09-27T09:21:29.939Z,14.60
2022-09-27T09:24:23.597Z,14.50
2022-09-27T09:26:57.936Z,14.40
2022-09-27T09:29:39.189Z,14.50
2022-09-27T09:32:25.698Z,13.90
2022-09-27T09:34:59.984Z,14.20
2022-09-27T09:37:35.468Z,14.40
2022-09-27T09:40:09.285Z,14.50
2022-09-27T09:42:43.055Z,14.60
2022-09-27T09:45:19.239Z,14.70
2022-09-27T09:47:50.905Z,14.90
2022-09-27T09:50:20.296Z,15.00
2022-09-27T09:52:52.311Z,14.80
2022-09-27T09:55:22.845Z,14.70
2022-09-27T09:58:02.934Z,14.60
2022-09-27T10:00:38.980Z,14.40
2022-09-27T10:03:08.203Z,14.30
2022-09-27T10:05:35.624Z,14.40
2022-09-27T10:08:08.075Z,14.50
2022-09-27T10:10:36.210Z,14.60
2022-09-27T10:13:34.526Z,14.70
2022-09-27T10:16:07.261Z,14.50
2022-09-27T10:18:38.608Z,14.70
2022-09-27T10:21:10.975Z,14.80
2022-09-27T10:23:58.018Z,14.90
2022-09-27T10:26:39.438Z,15.00
2022-09-27T10:29:16.444Z,15.10
2022-09-27T10:31:47.797Z,15.10
2022-09-27T10:34:25.511Z,15.00
2022-09-27T10:37:15.533Z,15.10
2022-09-27T10:39:53.820Z,15.20
2022-09-27T10:42:23.846Z,15.40
2022-09-27T10:44:51.069Z,15.40
2022-09-27T10:47:27.374Z,15.30
2022-09-27T10:50:49.512Z,15.50
2022-09-27T10:53:22.090Z,15.70
2022-09-27T10:55:58.649Z,15.80
2022-09-27T10:58:27.293Z,15.70
2022-09-27T11:00:55.380Z,15.70
2022-09-27T11:03:22.876Z,15.50
2022-09-27T11:05:54.613Z,15.50
2022-09-27T11:08:24.070Z,15.50
2022-09-27T11:11:01.626Z,15.40
2022-09-27T11:13:32.742Z,15.70
2022-09-27T11:16:11.448Z,16.00
2022-09-27T11:18:43.573Z,16.10
2022-09-27T11:21:18.813Z,15.60
2022-09-27T11:23:53.565Z,15.80
2022-09-27T11:26:30.082Z,16.00
2022-09-27T11:29:02.795Z,16.00
2022-09-27T11:31:52.743Z,15.70
2022-09-27T11:34:34.229Z,15.80
2022-09-27T11:37:08.392Z,15.80
2022-09-27T11:39:40.902Z,15.90
2022-09-27T11:42:16.792Z,15.80
2022-09-27T11:45:07.830Z,15.70
2022-09-27T11:47:44.138Z,15.70
2022-09-27T11:50:26.511Z,15.50
2022-09-27T11:53:03.840Z,15.60
2022-09-27T11:55:36.701Z,15.50
2022-09-27T11:58:06.284Z,15.70
2022-09-27T12:00:42.439Z,15.60
2022-09-27T12:03:35.271Z,15.60
2022-09-27T12:06:07.681Z,15.70
2022-09-27T12:08:44.489Z,15.50
2022-09-27T12:11:14.802Z,15.30
2022-09-27T12:13:44.087Z,15.00
2022-09-27T12:16:13.096Z,14.90
2022-09-27T12:18:41.173Z,14.90
2022-09-27T12:21:25.421Z,15.20
2022-09-27T12:23:57.746Z,15.50
2022-09-27T12:26:40.017Z,15.40
2022-09-27T12:29:14.090Z,15.20
2022-09-27T12:31:43.487Z,15.10
2022-09-27T12:34:19.331Z,15.30
2022-09-27T12:36:49.374Z,15.10
2022-09-27T12:39:20.533Z,15.20
2022-09-27T12:42:01.132Z,15.00
2022-09-27T12:44:40.012Z,15.10
2022-09-27T12:47:10.055Z,15.20
2022-09-27T12:49:44.573Z,15.20
2022-09-27T12:52:13.224Z,15.10
2022-09-27T12:54:50.018Z,15.30
2022-09-27T12:57:20.801Z,15.30
2022-09-27T12:59:56.123Z,15.10
2022-09-27T13:02:39.136Z,14.90
2022-09-27T13:05:20.187Z,14.90
2022-09-27T13:07:52.787Z,14.80
2022-09-27T13:10:30.142Z,14.80
2022-09-27T13:13:01.597Z,14.90
2022-09-27T13:15:30.721Z,15.20
2022-09-27T13:18:03.702Z,15.40
2022-09-27T13:20:44.202Z,15.50
2022-09-27T13:23:50.927Z,15.70
2022-09-27T13:26:24.400Z,15.80
2022-09-27T13:29:02.001Z,15.80
2022-09-27T13:32:05.694Z,16.10
2022-09-27T13:34:57.211Z,16.30
2022-09-27T13:37:37.046Z,16.40
2022-09-27T13:40:21.746Z,16.80
2022-09-27T13:43:28.178Z,17.10
2022-09-27T13:46:05.799Z,17.30
2022-09-27T13:48:43.871Z,17.60
2022-09-27T13:51:17.896Z,17.80
2022-09-27T13:53:55.545Z,18.10
2022-09-27T13:56:38.132Z,18.30
2022-09-27T13:59:10.328Z,18.80
2022-09-27T14:02:02.579Z,19.00
2022-09-27T14:04:41.186Z,19.30
2022-09-27T14:07:12.454Z,19.40
2022-09-27T14:09:41.078Z,19.60
2022-09-27T14:12:21.679Z,19.80
2022-09-27T14:14:50.758Z,20.00
2022-09-27T14:17:21.246Z,19.80
2022-09-27T14:19:49.348Z,20.00
2022-09-27T14:22:17.850Z,20.10
2022-09-27T14:25:16.585Z,19.90
2022-09-27T14:27:44.715Z,19.90
2022-09-27T14:30:30.074Z,19.80
2022-09-27T14:33:30.076Z,19.70
2022-09-27T14:36:23.721Z,19.70
2022-09-27T14:38:52.755Z,19.40
2022-09-27T14:41:26.406Z,19.40
2022-09-27T14:43:53.644Z,19.40
2022-09-27T14:46:28.213Z,19.40
2022-09-27T14:48:56.669Z,19.30
2022-09-27T14:51:27.856Z,19.20
2022-09-27T14:53:58.392Z,19.30
2022-09-27T14:56:27.608Z,18.90
2022-09-27T14:59:02.339Z,18.40
2022-09-27T15:01:29.739Z,18.30
2022-09-27T15:04:03.472Z,18.20
2022-09-27T15:06:30.557Z,18.00
2022-09-27T15:08:58.158Z,17.90
2022-09-27T15:11:25.144Z,17.70
2022-09-27T15:13:52.884Z,17.80
2022-09-27T15:16:21.289Z,17.80
2022-09-27T15:18:49.216Z,17.70
2022-09-27T15:21:31.248Z,17.20
2022-09-27T15:23:59.408Z,17.10
2022-09-27T15:26:34.592Z,17.20
2022-09-27T15:29:01.834Z,17.10
2022-09-27T15:31:33.036Z,16.80
2022-09-27T15:34:00.264Z,17.00
2022-09-27T15:36:42.060Z,17.20
2022-09-27T15:39:16.209Z,17.20
2022-09-27T15:42:08.186Z,17.20
2022-09-27T15:44:48.693Z,16.90
2022-09-27T15:47:40.696Z,17.00
2022-09-27T15:50:26.516Z,16.80
2022-09-27T15:52:56.107Z,17.00
2022-09-27T15:55:25.779Z,16.80
2022-09-27T15:57:54.088Z,16.80
2022-09-27T16:00:21.187Z,16.70
2022-09-27T16:02:48.279Z,16.60
2022-09-27T16:05:15.486Z,16.40
2022-09-27T16:07:42.409Z,16.50
2022-09-27T16:10:13.183Z,16.40
2022-09-27T16:12:41.596Z,16.20
2022-09-27T16:15:08.804Z,16.00
2022-09-27T16:17:37.861Z,16.10
2022-09-27T16:20:05.377Z,16.20
2022-09-27T16:22:32.512Z,16.10
2022-09-27T16:24:59.412Z,16.20
2022-09-27T16:27:27.404Z,16.10
2022-09-27T16:29:57.922Z,16.20
2022-09-27T16:32:25.635Z,16.10
2022-09-27T16:34:52.696Z,15.80
2022-09-27T16:37:20.000Z,15.40
2022-09-27T16:39:46.894Z,15.10
2022-09-27T16:42:14.527Z,15.00
2022-09-27T16:44:41.455Z,14.80
2022-09-27T16:47:09.721Z,14.60
2022-09-27T16:50:03.281Z,14.60
2022-09-27T16:52:32.437Z,14.70
2022-09-27T16:54:59.728Z,14.70
2022-09-27T16:57:28.355Z,14.70
2022-09-27T16:59:59.163Z,14.80
2022-09-27T17:02:32.804Z,14.70
2022-09-27T17:04:59.695Z,14.80
2022-09-27T17:07:26.670Z,14.70
2022-09-27T17:09:53.804Z,14.60
2022-09-27T17:12:20.764Z,14.60
2022-09-27T17:14:47.768Z,14.50
2022-09-27T17:17:14.688Z,14.40
2022-09-27T17:19:43.617Z,14.20
2022-09-27T17:22:10.676Z,14.20
2022-09-27T17:24:37.528Z,14.40
2022-09-27T17:27:04.438Z,14.30
2022-09-27T17:29:31.595Z,14.30
2022-09-27T17:31:58.629Z,14.10
2022-09-27T17:34:25.685Z,14.10
2022-09-27T17:36:54.152Z,14.00
2022-09-27T17:39:21.361Z,14.00
2022-09-27T17:41:48.480Z,14.00
2022-09-27T17:44:16.042Z,14.00
2022-09-27T17:46:43.053Z,14.00
2022-09-27T17:49:29.336Z,14.00
2022-09-27T17:51:57.908Z,14.00
2022-09-27T17:54:27.166Z,14.10
2022-09-27T17:56:54.182Z,14.30
2022-09-27T17:59:21.108Z,14.30
2022-09-27T18:01:48.785Z,14.30
2022-09-27T18:04:17.130Z,14.40
2022-09-27T18:06:46.079Z,14.50
2022-09-27T18:09:15.164Z,14.50
2022-09-27T18:11:42.712Z,14.40
2022-09-27T18:14:10.675Z,14.40
2022-09-27T18:16:39.569Z,14.40
2022-09-27T18:19:07.857Z,14.50
2022-09-27T18:21:34.883Z,14.50
2022-09-27T18:24:06.324Z,14.30
2022-09-27T18:26:39.331Z,14.40
2022-09-27T18:29:07.461Z,14.40
2022-09-27T18:31:34.519Z,14.20
2022-09-27T18:34:02.925Z,14.10
2022-09-27T18:36:29.799Z,14.10
2022-09-27T18:38:57.481Z,14.10
2022-09-27T18:41:25.249Z,14.10
2022-09-27T18:43:57.969Z,14.10
2022-09-27T18:46:41.103Z,14.00
2022-09-27T18:49:10.432Z,14.20
2022-09-27T18:51:39.835Z,14.00
2022-09-27T18:54:07.410Z,14.20
2022-09-27T18:56:39.329Z,14.10
2022-09-27T18:59:08.926Z,14.20
2022-09-27T19:01:39.749Z,14.20
2022-09-27T19:04:07.576Z,13.80
2022-09-27T19:06:35.398Z,13.90
2022-09-27T19:09:03.721Z,13.90
2022-09-27T19:11:30.719Z,13.80
2022-09-27T19:13:58.216Z,13.80
2022-09-27T19:16:27.328Z,13.70
2022-09-27T19:18:54.778Z,13.80
2022-09-27T19:21:22.710Z,13.90
2022-09-27T19:23:51.196Z,13.90
2022-09-27T19:26:19.223Z,13.90
2022-09-27T19:28:46.932Z,13.90
2022-09-27T19:31:14.917Z,13.80
2022-09-27T19:33:43.356Z,13.70
2022-09-27T19:36:11.480Z,13.60
2022-09-27T19:38:38.619Z,13.60
2022-09-27T19:41:06.973Z,13.70
2022-09-27T19:43:33.944Z,13.80
2022-09-27T19:46:02.670Z,13.70
2022-09-27T19:48:32.959Z,13.30
2022-09-27T19:51:01.543Z,13.20
2022-09-27T19:53:32.224Z,13.40
2022-09-27T19:55:59.860Z,13.50
2022-09-27T19:58:27.334Z,13.40
2022-09-27T20:00:57.622Z,13.40
2022-09-27T20:03:24.574Z,13.50
2022-09-27T20:05:52.062Z,13.50
2022-09-27T20:08:20.326Z,13.40
2022-09-27T20:10:53.228Z,13.60
2022-09-27T20:13:20.840Z,13.40
2022-09-27T20:15:48.103Z,13.40
2022-09-27T20:18:15.374Z,13.30
2022-09-27T20:20:42.323Z,13.00
2022-09-27T20:23:09.506Z,13.20
2022-09-27T20:25:42.188Z,13.20
2022-09-27T20:28:09.849Z,13.10
2022-09-27T20:30:36.723Z,13.20
2022-09-27T20:33:22.508Z,13.30
2022-09-27T20:35:50.165Z,13.20
2022-09-27T20:38:17.080Z,13.30
2022-09-27T20:40:51.738Z,13.30
2022-09-27T20:43:18.628Z,13.40
2022-09-27T20:45:45.584Z,13.30
2022-09-27T20:48:12.672Z,13.00
2022-09-27T20:50:39.647Z,13.10
2022-09-27T20:53:06.531Z,12.90
2022-09-27T20:55:33.528Z,12.90
2022-09-27T20:58:01.773Z,13.10
2022-09-27T21:00:28.686Z,13.30
2022-09-27T21:02:55.613Z,13.30
2022-09-27T21:05:22.545Z,13.20
2022-09-27T21:07:52.716Z,13.20
2022-09-27T21:10:19.819Z,13.20
2022-09-27T21:12:46.778Z,13.40
2022-09-27T21:15:15.249Z,13.30
2022-09-27T21:17:42.158Z,13.40
2022-09-27T21:20:10.153Z,13.30
2022-09-27T21:22:37.667Z,13.30
2022-09-27T21:25:05.051Z,13.40
2022-09-27T21:27:31.957Z,13.20
2022-09-27T21:30:00.123Z,13.10
2022-09-27T21:32:28.528Z,13.10
2022-09-27T21:34:55.668Z,13.20
2022-09-27T21:37:23.231Z,12.90
2022-09-27T21:39:50.179Z,12.80
2022-09-27T21:42:17.043Z,12.90
2022-09-27T21:44:44.147Z,13.00
2022-09-27T21:47:12.379Z,13.00
2022-09-27T21:49:40.659Z,12.90
2022-09-27T21:52:07.536Z,13.10
2022-09-27T21:54:34.433Z,12.90
2022-09-27T21:57:01.893Z,13.00
2022-09-27T21:59:28.735Z,12.90
2022-09-27T22:01:55.757Z,12.80
2022-09-27T22:04:22.643Z,12.90
2022-09-27T22:06:52.935Z,12.90
2022-09-27T22:09:20.304Z,13.00
2022-09-27T22:11:47.658Z,12.90
2022-09-27T22:14:16.031Z,12.50
2022-09-27T22:16:42.929Z,12.80
2022-09-27T22:19:10.334Z,12.90
2022-09-27T22:21:37.931Z,12.50
2022-09-27T22:24:08.322Z,12.50
2022-09-27T22:26:36.470Z,12.70
2022-09-27T22:29:03.883Z,12.70
2022-09-27T22:31:30.815Z,12.70
2022-09-27T22:33:59.355Z,12.60
2022-09-27T22:36:27.599Z,12.50
2022-09-27T22:38:55.001Z,12.30
2022-09-27T22:41:23.475Z,12.20
2022-09-27T22:43:53.444Z,12.20
2022-09-27T22:46:20.525Z,12.30
2022-09-27T22:48:47.833Z,12.30
2022-09-27T22:51:14.928Z,12.10
2022-09-27T22:53:41.846Z,12.10
2022-09-27T22:56:10.179Z,12.30
2022-09-27T22:58:38.506Z,12.40
2022-09-27T23:01:09.235Z,12.40
2022-09-27T23:03:37.024Z,12.30
2022-09-27T23:06:04.340Z,12.30
2022-09-27T23:08:32.311Z,12.30
2022-09-27T23:11:03.110Z,12.40
2022-09-27T23:13:30.519Z,12.30
2022-09-27T23:16:01.711Z,12.10
2022-09-27T23:18:28.704Z,12.10
2022-09-27T23:20:57.676Z,12.00
2022-09-27T23:23:24.577Z,11.90
2022-09-27T23:25:57.176Z,11.90
2022-09-27T23:28:24.073Z,11.80
2022-09-27T23:30:50.920Z,11.80
2022-09-27T23:33:19.316Z,12.00
2022-09-27T23:35:47.282Z,12.00
2022-09-27T23:38:14.956Z,12.10
2022-09-27T23:40:42.026Z,11.90
2022-09-27T23:43:09.186Z,12.00
2022-09-27T23:45:36.437Z,12.00
2022-09-27T23:48:04.079Z,12.10
2022-09-27T23:50:32.513Z,12.10
2022-09-27T23:52:59.575Z,12.20
2022-09-27T23:55:26.436Z,12.20
2022-09-27T23:57:53.373Z,11.80
